Portada
METAR-TAF:

METAR-TAF

Aeroports :

Brenner Field

Falls City, Nebraska, Estats Units d'Amèrica

latitud: 40-04-44N, longitud: 095-35-31W, altitud: 300 m

Observació

L'informe es va fer fa 1 hora i 8 minuts, a les 09:53 UTC
Vent 4 kt del Nord-Oest
Temperatura -16°C
Humitat 84%
Pressió 1038 hPa
Visibilitat: 16.1 km
Cel clar

METAR: KFNB 120953Z AUTO 31004KT 10SM CLR M16/M18 A3066 RMK AO2 SLP403 T11561178 $

Hora: 05:01 (11:01 UTC)


TAF: manca

Observacions i pronòstics meteorològics de més de 4000 aeroports (METAR i TAF).

Les estacions disponibles són els punts grocs i vermells al mapa.

Posi el ratolí al punt desitjat per veure el nom de l'estació.

Feu clic per veure les observacions i els pronòstics meteorològics.

Per canviar el mapa: feu clic els botons verds amb una creu de color negre per apropar; al botó verd amb un guió per allunyar la imatge; o en les fletxes verdes per a mapes adjacents.


METAR-TAF: